Time;durP1;ratioP1;P1;durP2;ratioP2;P2;SDS_P1;SDS_P2;PMS_P1;PMS_P2;Temp;Humidity;BMP_temperature;BMP_pressure;BME280_temperature;BME280_humidity;BME280_pressure;Samples;Min_cycle;Max_cycle;Signal;HPM_P1;HPM_P2
2022/09/01 00:01:25;;;;;;;1.40;0.83;;;;;;;14.11;77.68;102519.88;4986994;28;20184;-74
2022/09/01 00:03:55;;;;;;;2.30;0.83;;;;;;;14.12;78.00;102517.34;4990359;28;20803;-73
2022/09/01 00:06:22;;;;;;;2.70;1.00;;;;;;;14.11;77.93;102515.59;5022149;23;20243;-72
2022/09/01 00:08:52;;;;;;;2.77;0.90;;;;;;;14.07;78.55;102510.28;4993074;28;20662;-72
2022/09/01 00:11:19;;;;;;;1.10;0.90;;;;;;;14.06;78.89;102513.69;4993095;28;20226;-72
2022/09/01 00:13:45;;;;;;;1.73;0.90;;;;;;;14.05;78.40;102515.38;4991896;28;20236;-71
2022/09/01 00:16:14;;;;;;;1.30;1.10;;;;;;;14.02;78.85;102507.59;4993702;28;20290;-72
2022/09/01 00:18:41;;;;;;;1.37;1.13;;;;;;;14.04;78.65;102515.34;5003968;28;20191;-72
2022/09/01 00:21:08;;;;;;;2.00;0.97;;;;;;;14.02;78.69;102512.72;5008536;28;20547;-71
2022/09/01 00:23:33;;;;;;;2.20;1.10;;;;;;;13.94;79.00;102509.03;4999329;28;20229;-73
2022/09/01 00:25:59;;;;;;;1.83;0.87;;;;;;;13.90;79.10;102511.47;5008348;28;20524;-72
2022/09/01 00:28:24;;;;;;;1.77;0.90;;;;;;;13.85;79.26;102513.03;5001195;28;20294;-72
2022/09/01 00:30:50;;;;;;;0.80;0.80;;;;;;;13.84;79.06;102508.66;5009255;28;20199;-72
2022/09/01 00:33:15;;;;;;;1.63;0.97;;;;;;;13.85;79.42;102513.03;5001243;28;20205;-72
2022/09/01 00:35:41;;;;;;;1.80;0.90;;;;;;;13.80;79.73;102515.44;5006624;28;20198;-72
2022/09/01 00:38:06;;;;;;;0.90;0.80;;;;;;;13.76;79.85;102510.13;5001588;28;20254;-73
2022/09/01 00:40:32;;;;;;;2.80;1.13;;;;;;;13.74;80.43;102515.22;5005406;28;20207;-72
2022/09/01 00:42:59;;;;;;;1.27;0.90;;;;;;;13.68;80.54;102507.28;5004839;28;20198;-72
2022/09/01 00:45:25;;;;;;;2.20;0.97;;;;;;;13.63;80.46;102511.41;5007493;28;20475;-72
2022/09/01 00:47:50;;;;;;;1.67;1.00;;;;;;;13.57;81.18;102507.75;5005528;28;20398;-72
2022/09/01 00:50:18;;;;;;;1.37;1.00;;;;;;;13.57;81.06;102513.78;5004375;28;20184;-72
2022/09/01 00:52:51;;;;;;;3.33;1.20;;;;;;;13.52;81.31;102497.31;5009591;28;20207;-72
2022/09/01 00:55:23;;;;;;;2.40;1.10;;;;;;;13.55;80.76;102501.69;5003846;28;20191;-73
2022/09/01 00:57:49;;;;;;;1.20;1.10;;;;;;;13.51;80.79;102499.81;5009204;28;20226;-72
2022/09/01 01:00:19;;;;;;;1.80;0.90;;;;;;;13.48;80.75;102495.44;5000669;28;20194;-72
2022/09/01 01:02:47;;;;;;;1.77;0.90;;;;;;;13.44;81.41;102493.59;5008090;28;20183;-72
2022/09/01 01:05:14;;;;;;;1.60;1.10;;;;;;;13.41;81.93;102500.34;5002835;28;20260;-72
2022/09/01 01:07:43;;;;;;;1.30;1.00;;;;;;;13.41;81.78;102498.66;5010293;28;20216;-72
2022/09/01 01:10:11;;;;;;;1.47;1.33;;;;;;;13.41;82.46;102492.63;5004317;28;20753;-72
2022/09/01 01:12:39;;;;;;;1.20;1.10;;;;;;;13.39;83.18;102491.69;5009006;28;20206;-72
2022/09/01 01:15:07;;;;;;;1.70;1.00;;;;;;;13.39;82.92;102492.56;5006150;28;20186;-73
2022/09/01 01:17:33;;;;;;;1.97;1.00;;;;;;;13.38;82.90;102495.97;5004929;28;20251;-72
2022/09/01 01:23:14;;;;;;;1.80;0.90;;;;;;;13.39;83.15;102490.00;5009529;28;20627;-73
2022/09/01 01:25:48;;;;;;;1.63;0.90;;;;;;;13.37;83.53;102495.91;5005487;28;20207;-73
2022/09/01 01:28:17;;;;;;;3.27;1.20;;;;;;;13.32;83.81;102500.00;5003707;28;20210;-72
2022/09/01 01:30:50;;;;;;;1.50;0.90;;;;;;;13.35;83.86;102502.72;5006034;28;20341;-73
2022/09/01 01:33:18;;;;;;;1.47;1.20;;;;;;;13.37;84.07;102501.06;5002304;28;20620;-72
2022/09/01 01:35:43;;;;;;;1.93;1.03;;;;;;;13.37;84.71;102496.78;5004042;28;20195;-73
2022/09/01 01:38:10;;;;;;;1.37;1.17;;;;;;;13.36;84.23;102497.63;5003591;28;20832;-72
2022/09/01 01:40:37;;;;;;;2.23;1.10;;;;;;;13.38;84.54;102500.22;5003906;28;20605;-71
2022/09/01 01:43:04;;;;;;;1.67;1.27;;;;;;;13.35;84.44;102498.41;5008027;28;20207;-73
2022/09/01 01:45:29;;;;;;;2.10;0.93;;;;;;;13.38;84.67;102500.22;5004967;28;20675;-72
2022/09/01 01:47:56;;;;;;;1.30;1.10;;;;;;;13.40;84.90;102496.88;5005791;28;20219;-72
2022/09/01 01:50:28;;;;;;;2.40;1.00;;;;;;;13.42;84.73;102499.50;5009590;28;20214;-73
2022/09/01 01:52:56;;;;;;;1.10;1.00;;;;;;;13.43;85.20;102501.25;5024101;28;20184;-72
2022/09/01 01:55:26;;;;;;;1.17;1.03;;;;;;;13.47;85.30;102495.38;5023999;28;20191;-72
2022/09/01 01:57:52;;;;;;;2.33;1.23;;;;;;;13.47;85.24;102496.28;5005875;28;20245;-72
2022/09/01 02:00:21;;;;;;;2.83;1.10;;;;;;;13.49;85.11;102502.34;5002791;28;20210;-72
2022/09/01 02:02:51;;;;;;;2.77;1.33;;;;;;;13.51;84.98;102499.81;5005614;28;20633;-72
2022/09/01 02:05:27;;;;;;;1.67;1.23;;;;;;;13.53;85.55;102498.19;5004699;28;20244;-72
2022/09/01 02:07:57;;;;;;;1.53;1.20;;;;;;;13.55;85.62;102499.09;5000782;28;21032;-72
2022/09/01 02:10:29;;;;;;;2.03;1.27;;;;;;;13.54;85.80;102494.78;5002609;28;20266;-72
2022/09/01 02:13:00;;;;;;;1.10;0.90;;;;;;;13.54;85.79;102498.22;5001687;28;20190;-72
2022/09/01 02:15:26;;;;;;;2.00;1.00;;;;;;;13.55;86.08;102502.56;5008616;28;20226;-73
2022/09/01 02:17:59;;;;;;;3.60;1.00;;;;;;;13.55;85.54;102496.53;5004178;28;20787;-72
2022/09/01 02:20:31;;;;;;;4.47;1.30;;;;;;;13.57;85.52;102505.16;5002247;28;20186;-72
2022/09/01 02:23:03;;;;;;;1.73;1.30;;;;;;;13.57;85.79;102497.44;5004719;28;20229;-72
2022/09/01 02:25:30;;;;;;;1.87;0.90;;;;;;;13.59;85.89;102501.84;5005119;28;20685;-73
2022/09/01 02:27:56;;;;;;;1.93;1.00;;;;;;;13.60;85.89;102498.44;5005766;28;20528;-72
2022/09/01 02:30:23;;;;;;;1.00;0.90;;;;;;;13.61;85.53;102495.03;5003871;28;20233;-72
2022/09/01 02:32:49;;;;;;;1.20;1.10;;;;;;;13.61;85.83;102497.63;5006944;28;20205;-72
2022/09/01 02:35:15;;;;;;;0.97;0.90;;;;;;;13.60;85.72;102497.56;5000531;28;20231;-73
2022/09/01 02:37:42;;;;;;;1.83;0.90;;;;;;;13.61;85.06;102492.47;5007852;28;20639;-72
2022/09/01 02:40:11;;;;;;;2.03;1.17;;;;;;;13.58;85.88;102492.34;5005381;28;20191;-72
2022/09/01 02:42:42;;;;;;;2.10;1.30;;;;;;;13.54;86.03;102490.50;5004272;28;20198;-73
2022/09/01 02:45:15;;;;;;;4.63;1.10;;;;;;;13.55;85.40;102492.28;5023898;28;20183;-73
2022/09/01 02:47:44;;;;;;;2.00;0.93;;;;;;;13.53;85.69;102488.75;5003394;28;20211;-72
2022/09/01 02:50:12;;;;;;;1.60;1.00;;;;;;;13.52;85.86;102492.16;5003015;28;20188;-72
2022/09/01 02:52:39;;;;;;;1.37;1.00;;;;;;;13.52;85.56;102493.84;5003716;28;20273;-72
2022/09/01 02:55:07;;;;;;;1.10;0.80;;;;;;;13.49;85.34;102489.47;5006099;28;20568;-73
2022/09/01 02:57:34;;;;;;;1.50;1.07;;;;;;;13.49;85.43;102496.34;5007814;28;20681;-72
2022/09/01 03:00:00;;;;;;;2.83;1.30;;;;;;;13.47;85.72;102487.66;5008527;28;20309;-73
2022/09/01 03:02:28;;;;;;;1.20;1.10;;;;;;;13.43;86.19;102489.28;5005025;28;20626;-72
2022/09/01 03:04:56;;;;;;;1.53;1.20;;;;;;;13.45;86.49;102477.31;5008573;28;20198;-72
2022/09/01 03:07:22;;;;;;;2.90;1.30;;;;;;;13.47;86.74;102491.13;5004958;28;20313;-72
2022/09/01 03:09:49;;;;;;;1.07;1.00;;;;;;;13.47;86.86;102482.53;4997360;28;20665;-72
2022/09/01 03:12:14;;;;;;;2.83;1.23;;;;;;;13.47;87.17;102485.09;5004817;28;20210;-72
2022/09/01 03:14:40;;;;;;;2.47;1.40;;;;;;;13.46;87.09;102493.66;5005419;28;20229;-73
2022/09/01 03:17:05;;;;;;;1.63;1.30;;;;;;;13.42;87.83;102487.53;5007352;28;20214;-72
2022/09/01 03:19:43;;;;;;;1.30;0.90;;;;;;;13.43;87.39;102493.53;5009253;28;20202;-72
2022/09/01 03:22:09;;;;;;;3.17;1.70;;;;;;;13.44;87.87;102503.03;5012753;28;20183;-73
2022/09/01 03:24:35;;;;;;;2.60;1.30;;;;;;;13.42;87.96;102491.78;5010176;28;20186;-72
2022/09/01 03:27:01;;;;;;;2.20;1.20;;;;;;;13.40;87.76;102501.16;5008905;28;20223;-72
2022/09/01 03:29:26;;;;;;;3.03;1.40;;;;;;;13.40;87.46;102496.03;5011216;28;20274;-74
2022/09/01 03:31:53;;;;;;;3.80;1.43;;;;;;;13.41;87.81;102497.75;4997055;28;20624;-74
2022/09/01 03:34:22;;;;;;;3.90;1.43;;;;;;;13.37;87.46;102489.06;5014053;28;20186;-72
2022/09/01 03:36:50;;;;;;;2.50;1.37;;;;;;;13.32;88.28;102490.63;5002515;28;20226;-72
2022/09/01 03:39:19;;;;;;;1.33;1.20;;;;;;;13.30;88.18;102487.09;5009755;28;20650;-73
2022/09/01 03:41:45;;;;;;;2.40;1.30;;;;;;;13.33;87.97;102492.34;5005888;28;20183;-72
2022/09/01 03:44:15;;;;;;;1.77;1.17;;;;;;;13.30;87.95;102487.09;5001258;28;20666;-72
2022/09/01 03:46:42;;;;;;;2.23;1.37;;;;;;;13.30;88.31;102487.09;5028710;28;20211;-72
2022/09/01 03:49:12;;;;;;;1.40;1.30;;;;;;;13.28;88.44;102482.72;5011333;28;20196;-72
2022/09/01 03:51:39;;;;;;;2.83;1.20;;;;;;;13.33;88.59;102488.91;5011356;28;20266;-73
2022/09/01 03:54:05;;;;;;;2.10;1.13;;;;;;;13.34;88.78;102493.22;5006405;28;20191;-72
2022/09/01 03:56:31;;;;;;;1.30;1.20;;;;;;;13.30;88.59;102489.66;5011012;28;20747;-72
2022/09/01 03:58:58;;;;;;;1.47;1.33;;;;;;;13.27;88.36;102486.13;5013279;28;20201;-72
2022/09/01 04:01:26;;;;;;;2.07;1.40;;;;;;;13.23;88.72;102482.56;5010685;28;20821;-72
2022/09/01 04:03:53;;;;;;;1.67;1.33;;;;;;;13.25;88.65;102488.63;5007302;28;20210;-73
2022/09/01 04:06:22;;;;;;;1.23;1.00;;;;;;;13.22;88.93;102492.81;5012414;28;20578;-72
2022/09/01 04:08:49;;;;;;;1.20;1.10;;;;;;;13.23;88.68;102486.84;5023985;28;20187;-73
2022/09/01 04:11:17;;;;;;;1.70;1.47;;;;;;;13.22;88.96;102485.09;4997780;28;20203;-72
2022/09/01 04:13:45;;;;;;;2.13;1.20;;;;;;;13.23;88.93;102487.72;5006494;28;20230;-73
2022/09/01 04:19:24;;;;;;;2.00;1.50;;;;;;;13.23;89.35;102489.41;5009613;28;20183;-72
2022/09/01 04:21:52;;;;;;;2.30;1.53;;;;;;;13.20;89.25;102482.47;5016040;28;20637;-71
2022/09/01 04:24:18;;;;;;;1.30;1.13;;;;;;;13.19;89.24;102480.72;5011655;28;20589;-73
2022/09/01 04:26:48;;;;;;;1.93;1.23;;;;;;;13.19;88.97;102482.41;5006110;28;20588;-72
2022/09/01 04:29:18;;;;;;;2.33;1.50;;;;;;;13.19;88.94;102490.13;5006126;28;20211;-72
2022/09/01 04:31:44;;;;;;;2.93;1.37;;;;;;;13.17;89.53;102491.78;4987154;28;20214;-72
2022/09/01 04:34:12;;;;;;;1.70;1.40;;;;;;;13.18;90.02;102486.69;5005471;28;20195;-72
2022/09/01 04:36:42;;;;;;;1.87;1.27;;;;;;;13.17;89.98;102486.63;5003572;28;20242;-72
2022/09/01 04:39:10;;;;;;;1.93;1.30;;;;;;;13.15;89.29;102480.53;5006091;28;20180;-72
2022/09/01 04:41:48;;;;;;;4.43;1.33;;;;;;;13.14;89.62;102484.81;5007703;28;20217;-73
2022/09/01 04:44:17;;;;;;;2.17;1.20;;;;;;;13.12;89.43;102481.31;5016963;28;20198;-73
2022/09/01 04:46:46;;;;;;;4.17;1.53;;;;;;;13.12;89.58;102480.44;5007673;28;20219;-72
2022/09/01 04:49:18;;;;;;;2.07;1.47;;;;;;;13.07;89.75;102482.84;5010849;28;20278;-72
2022/09/01 04:51:47;;;;;;;5.37;2.70;;;;;;;12.98;88.61;102484.22;5008993;28;20203;-72
2022/09/01 04:54:13;;;;;;;4.20;1.90;;;;;;;12.87;87.97;102486.38;5010590;28;20278;-72
2022/09/01 04:56:43;;;;;;;3.10;1.97;;;;;;;12.76;87.64;102482.53;5008524;28;20245;-73
2022/09/01 04:59:13;;;;;;;2.90;1.50;;;;;;;12.71;87.81;102487.50;5003607;28;20650;-72
2022/09/01 05:01:44;;;;;;;3.43;1.90;;;;;;;12.70;87.84;102501.19;5010576;28;20270;-72
2022/09/01 05:04:21;;;;;;;2.07;1.50;;;;;;;12.69;87.28;102493.41;5003411;28;20662;-71
2022/09/01 05:06:51;;;;;;;2.10;1.50;;;;;;;12.65;87.25;102491.53;5007935;28;21085;-72
2022/09/01 05:09:19;;;;;;;2.87;1.47;;;;;;;12.68;87.52;102496.81;4999964;28;20249;-72
2022/09/01 05:12:10;;;;;;;3.63;1.50;;;;;;;12.64;87.83;102492.34;4990649;28;20567;-72
2022/09/01 05:14:41;;;;;;;1.53;1.43;;;;;;;12.68;87.73;102502.78;5008272;28;20190;-72
2022/09/01 05:17:09;;;;;;;2.87;1.20;;;;;;;12.69;87.71;102495.97;5003646;28;20212;-72
2022/09/01 05:19:37;;;;;;;1.53;1.33;;;;;;;12.73;87.15;102491.00;4996220;28;20604;-72
2022/09/01 05:22:03;;;;;;;2.00;1.50;;;;;;;12.83;86.86;102502.50;5004998;28;20179;-74
2022/09/01 05:24:30;;;;;;;4.33;1.83;;;;;;;12.89;86.97;102501.03;5006090;28;20187;-73
2022/09/01 05:27:00;;;;;;;1.53;1.43;;;;;;;13.03;86.67;102498.13;5004084;28;20207;-73
2022/09/01 05:29:27;;;;;;;1.87;1.40;;;;;;;13.17;86.86;102496.91;5010050;28;20229;-74
2022/09/01 05:31:56;;;;;;;2.67;1.47;;;;;;;13.29;86.88;102498.22;5001806;28;20211;-73
2022/09/01 05:34:26;;;;;;;1.90;1.27;;;;;;;13.46;87.18;102503.94;5004602;28;20291;-72
2022/09/01 05:36:56;;;;;;;3.07;1.63;;;;;;;13.65;86.94;102503.75;4998608;28;20211;-72
2022/09/01 05:39:21;;;;;;;2.63;1.63;;;;;;;13.79;87.26;102500.81;4999192;28;20681;-73
2022/09/01 05:41:48;;;;;;;2.63;1.40;;;;;;;13.93;87.33;102499.56;5005696;28;20183;-72
2022/09/01 05:44:15;;;;;;;2.50;1.30;;;;;;;14.08;87.68;102500.03;5008956;28;20196;-73
2022/09/01 05:46:43;;;;;;;2.17;1.37;;;;;;;14.22;86.65;102501.38;5009407;28;20206;-73
2022/09/01 05:49:12;;;;;;;3.40;1.47;;;;;;;14.34;86.76;102509.50;4988743;28;20195;-72
2022/09/01 05:51:43;;;;;;;2.20;1.40;;;;;;;14.50;86.29;102503.13;5006347;28;20261;-72
2022/09/01 05:54:10;;;;;;;2.33;1.80;;;;;;;14.62;85.62;102506.91;5023358;28;20226;-73
2022/09/01 05:56:39;;;;;;;1.90;1.37;;;;;;;14.74;85.71;102504.69;5001165;28;20211;-73
2022/09/01 05:59:04;;;;;;;1.93;1.03;;;;;;;14.85;84.95;102505.00;5003206;28;20187;-73
2022/09/01 06:01:32;;;;;;;4.17;1.23;;;;;;;14.96;84.58;102501.03;5009790;28;20242;-73
2022/09/01 06:04:02;;;;;;;2.70;1.20;;;;;;;15.08;84.24;102503.94;5001114;28;20191;-72
2022/09/01 06:06:36;;;;;;;1.73;1.40;;;;;;;15.24;83.90;102506.13;5005971;28;20305;-72
2022/09/01 06:09:08;;;;;;;2.43;1.30;;;;;;;15.37;83.53;102500.50;5009639;28;20183;-72
2022/09/01 06:11:34;;;;;;;2.63;1.30;;;;;;;15.50;82.33;102505.13;5009651;28;20681;-72
2022/09/01 06:14:00;;;;;;;2.90;1.33;;;;;;;15.66;81.95;102496.94;4998587;28;20816;-72
2022/09/01 06:16:27;;;;;;;3.27;1.20;;;;;;;15.80;81.60;102501.59;5004896;28;20237;-72
2022/09/01 06:18:56;;;;;;;3.60;1.27;;;;;;;15.92;80.86;102499.34;4999757;28;20657;-72
2022/09/01 06:21:23;;;;;;;2.33;1.20;;;;;;;16.12;81.16;102497.22;5007033;28;20215;-72
2022/09/01 06:23:50;;;;;;;2.73;1.73;;;;;;;16.12;81.03;102500.69;5001865;28;20222;-73
2022/09/01 06:26:27;;;;;;;4.63;1.57;;;;;;;16.09;81.76;102498.03;4996895;28;20223;-73
2022/09/01 06:28:56;;;;;;;3.63;1.70;;;;;;;16.34;80.74;102494.31;5006537;28;20222;-73
2022/09/01 06:31:24;;;;;;;4.53;1.60;;;;;;;16.56;79.59;102491.38;4998191;28;20203;-73
2022/09/01 06:33:54;;;;;;;2.87;1.60;;;;;;;16.52;79.74;102493.03;5006985;28;20194;-72
2022/09/01 06:36:22;;;;;;;3.13;1.50;;;;;;;16.70;78.69;102489.94;4996834;28;20697;-73
2022/09/01 06:38:51;;;;;;;2.10;1.40;;;;;;;16.89;78.68;102499.81;4994370;28;20191;-72
2022/09/01 06:41:18;;;;;;;3.60;1.50;;;;;;;17.09;78.20;102501.13;4998745;28;20270;-72
2022/09/01 06:43:48;;;;;;;3.43;1.10;;;;;;;17.29;77.02;102495.47;5006979;28;20214;-73
2022/09/01 06:46:16;;;;;;;1.87;1.20;;;;;;;17.35;74.75;102499.88;5000679;28;20274;-72
2022/09/01 06:48:45;;;;;;;4.33;1.23;;;;;;;17.52;73.84;102501.97;5001804;28;20182;-72
2022/09/01 06:51:17;;;;;;;3.07;1.23;;;;;;;17.59;73.19;102501.22;5004481;28;20281;-73
2022/09/01 06:53:44;;;;;;;3.93;1.20;;;;;;;17.85;71.97;102499.94;5007028;28;20274;-72
2022/09/01 06:56:12;;;;;;;2.30;0.90;;;;;;;17.88;71.91;102500.00;5004133;28;20568;-73
2022/09/01 06:58:40;;;;;;;1.50;0.83;;;;;;;17.98;71.53;102503.59;5021203;28;20217;-72
2022/09/01 07:01:14;;;;;;;3.30;1.23;;;;;;;18.18;71.19;102494.41;5007829;28;20213;-72
2022/09/01 07:03:41;;;;;;;2.90;1.00;;;;;;;18.27;70.58;102498.03;5008550;28;20678;-73
2022/09/01 07:06:14;;;;;;;2.23;0.80;;;;;;;18.38;69.22;102499.06;5006928;28;20240;-74
2022/09/01 07:09:00;;;;;;;1.40;0.90;;;;;;;18.40;67.41;102499.09;5002529;28;20622;-72
2022/09/01 07:11:32;;;;;;;3.27;0.90;;;;;;;18.67;67.65;102502.06;5002770;28;20203;-73
2022/09/01 07:14:02;;;;;;;1.87;0.73;;;;;;;18.83;67.40;102496.22;5000765;28;20202;-72
2022/09/01 07:16:33;;;;;;;1.40;0.90;;;;;;;19.16;65.75;102499.22;5002215;28;20207;-73
2022/09/01 07:19:00;;;;;;;0.57;0.57;;;;;;;19.33;62.43;102495.97;5019523;28;20195;-74
2022/09/01 07:21:30;;;;;;;2.10;0.70;;;;;;;19.49;61.08;102497.00;5003971;28;20191;-73
2022/09/01 07:24:00;;;;;;;2.07;0.70;;;;;;;19.58;60.64;102495.31;5004043;28;20191;-73
2022/09/01 07:26:27;;;;;;;0.97;0.63;;;;;;;19.85;60.79;102505.13;5007671;28;20199;-73
2022/09/01 07:28:55;;;;;;;0.80;0.60;;;;;;;20.13;60.48;102499.31;5005383;28;20192;-73
2022/09/01 07:31:27;;;;;;;2.17;0.60;;;;;;;20.09;59.40;102497.53;5004436;28;20216;-72
2022/09/01 07:33:57;;;;;;;0.60;0.50;;;;;;;20.40;58.94;102499.47;4999819;28;20202;-73
2022/09/01 07:36:24;;;;;;;1.00;0.73;;;;;;;20.23;59.28;102493.28;5000603;28;20214;-73
2022/09/01 07:38:52;;;;;;;1.67;0.60;;;;;;;20.43;58.01;102492.56;5006731;28;20233;-72
2022/09/01 07:41:25;;;;;;;1.87;0.70;;;;;;;20.46;55.82;102496.91;5001146;28;20215;-73
2022/09/01 07:44:29;;;;;;;1.43;0.73;;;;;;;20.84;55.71;102497.94;4965218;28;20200;-72
2022/09/01 07:47:14;;;;;;;2.03;0.67;;;;;;;20.82;54.03;102497.94;4966096;28;20319;-72
2022/09/01 07:49:41;;;;;;;0.80;0.50;;;;;;;20.95;53.34;102502.38;4984122;28;20669;-74
2022/09/01 07:52:07;;;;;;;0.70;0.70;;;;;;;21.02;53.15;102501.53;5006360;28;20217;-73
2022/09/01 07:54:36;;;;;;;1.33;0.60;;;;;;;20.84;52.91;102500.56;5005944;28;20218;-72
2022/09/01 07:57:03;;;;;;;1.53;0.60;;;;;;;21.17;51.85;102505.91;5005471;28;20215;-72
2022/09/01 07:59:34;;;;;;;0.80;0.60;;;;;;;21.43;51.22;102506.84;4999440;28;20623;-73
2022/09/01 08:02:19;;;;;;;2.40;0.60;;;;;;;21.69;51.19;102505.19;5007286;28;20565;-72
2022/09/01 08:04:47;;;;;;;0.80;0.60;;;;;;;21.84;49.49;102502.56;5006126;28;20191;-74
2022/09/01 08:07:14;;;;;;;2.00;0.63;;;;;;;21.62;49.39;102500.78;5005682;28;20284;-73
2022/09/01 08:09:40;;;;;;;0.97;0.50;;;;;;;21.91;49.51;102501.69;5004680;28;20198;-72
2022/09/01 08:12:07;;;;;;;0.60;0.60;;;;;;;22.16;50.08;102509.47;5006448;28;20231;-73
2022/09/01 08:14:36;;;;;;;0.80;0.60;;;;;;;22.46;49.00;102507.75;5007321;28;20615;-73
2022/09/01 08:17:02;;;;;;;0.50;0.50;;;;;;;22.63;49.57;102509.41;4989071;28;20220;-73
2022/09/01 08:19:27;;;;;;;3.03;0.77;;;;;;;22.82;49.29;102500.63;4992054;28;20197;-72
2022/09/01 08:22:06;;;;;;;1.80;0.80;;;;;;;23.06;48.03;102502.28;5007029;28;20187;-73
2022/09/01 08:24:42;;;;;;;0.60;0.60;;;;;;;23.36;47.26;102499.50;5008432;28;20277;-72
2022/09/01 08:27:08;;;;;;;1.50;0.70;;;;;;;23.37;46.45;102503.84;5005170;28;20322;-72
2022/09/01 08:29:34;;;;;;;1.10;0.60;;;;;;;23.48;45.44;102500.28;5005711;28;20206;-72
2022/09/01 08:31:59;;;;;;;1.17;0.70;;;;;;;23.63;44.06;102501.94;4992320;28;20239;-73
2022/09/01 08:34:25;;;;;;;1.43;0.50;;;;;;;23.50;42.46;102502.91;5010707;28;20268;-74
2022/09/01 08:36:51;;;;;;;1.67;0.57;;;;;;;23.76;42.53;102500.97;5018132;28;20285;-73
2022/09/01 08:39:18;;;;;;;0.97;0.70;;;;;;;24.08;42.51;102498.97;5005022;28;20242;-74
2022/09/01 08:41:55;;;;;;;1.30;0.57;;;;;;;24.15;42.29;102493.66;5004869;28;20187;-72
2022/09/01 08:44:36;;;;;;;1.07;0.50;;;;;;;24.06;41.11;102500.72;5007935;28;20668;-72
2022/09/01 08:47:15;;;;;;;0.60;0.50;;;;;;;24.08;40.41;102501.59;5010832;28;20564;-73
2022/09/01 08:49:45;;;;;;;1.77;0.50;;;;;;;24.25;41.35;102503.16;5003545;28;20195;-73
2022/09/01 08:52:44;;;;;;;1.63;0.60;;;;;;;24.73;40.21;102502.63;5008055;28;20720;-73
2022/09/01 08:55:50;;;;;;;0.80;0.47;;;;;;;24.74;40.12;102491.28;5009298;28;20208;-73
2022/09/01 08:58:17;;;;;;;1.50;0.60;;;;;;;24.66;38.70;102492.22;5006770;28;20224;-72
2022/09/01 09:01:20;;;;;;;0.50;0.50;;;;;;;24.77;38.67;102491.22;5005947;28;20199;-73
2022/09/01 09:04:00;;;;;;;1.95;0.60;;;;;;;24.99;39.55;102489.19;5002673;28;20209;-73
2022/09/01 09:07:04;;;;;;;0.77;0.52;;;;;;;25.09;38.94;102486.41;5009331;28;20210;-72
2022/09/01 09:09:56;;;;;;;1.55;0.60;;;;;;;25.27;37.61;102483.56;4999783;28;20673;-72
2022/09/01 09:12:28;;;;;;;1.00;0.50;;;;;;;25.18;38.51;102483.66;5007367;28;20764;-73
2022/09/01 09:15:22;;;;;;;1.50;0.60;;;;;;;25.35;37.99;102488.69;5008055;28;20237;-73
2022/09/01 09:17:58;;;;;;;1.00;0.68;;;;;;;25.15;36.06;102472.34;5004564;28;20682;-73
2022/09/01 09:20:26;;;;;;;2.63;0.73;;;;;;;25.46;36.94;102476.28;5005528;28;20192;-74
2022/09/01 09:22:53;;;;;;;0.95;0.68;;;;;;;25.82;36.20;102473.91;5001557;28;20196;-73
2022/09/01 09:25:19;;;;;;;1.60;0.85;;;;;;;26.07;36.55;102472.63;5007973;28;20695;-74
2022/09/01 09:27:49;;;;;;;2.40;0.90;;;;;;;26.40;35.64;102465.88;5002252;28;20215;-71
2022/09/01 09:30:27;;;;;;;0.90;0.70;;;;;;;26.91;36.25;102459.56;5004837;28;20179;-72
2022/09/01 09:32:59;;;;;;;1.13;1.00;;;;;;;28.85;33.78;102461.50;5005238;28;20209;-73
2022/09/01 09:35:41;;;;;;;2.05;1.00;;;;;;;31.45;28.66;102449.53;5008496;28;20593;-73
2022/09/01 09:38:17;;;;;;;1.63;0.93;;;;;;;30.83;29.92;102445.84;5007177;28;20206;-74
2022/09/01 09:41:05;;;;;;;1.10;1.00;;;;;;;30.10;30.37;102450.31;5002230;28;20237;-74
2022/09/01 09:43:43;;;;;;;1.10;1.00;;;;;;;29.67;31.37;102450.09;5004450;28;20194;-73
2022/09/01 09:46:39;;;;;;;3.42;0.90;;;;;;;28.96;32.01;102453.28;5005253;28;20616;-73
2022/09/01 09:49:28;;;;;;;2.60;0.90;;;;;;;28.80;32.15;102444.94;5003085;28;20230;-73
2022/09/01 09:52:10;;;;;;;1.42;1.00;;;;;;;28.58;31.85;102449.13;5009217;28;20198;-73
2022/09/01 09:54:38;;;;;;;0.88;0.80;;;;;;;28.92;31.94;102451.63;5003187;28;20187;-73
2022/09/01 09:57:13;;;;;;;1.58;0.80;;;;;;;28.75;30.97;102444.22;5005750;28;20215;-73
2022/09/01 09:59:46;;;;;;;1.60;0.70;;;;;;;27.69;31.15;102444.53;5005697;28;20183;-73
2022/09/01 10:02:43;;;;;;;1.08;0.60;;;;;;;28.16;32.22;102445.03;5007813;28;20199;-73
2022/09/01 10:05:36;;;;;;;1.58;0.77;;;;;;;28.57;32.35;102433.34;5023419;28;20226;-73
2022/09/01 10:08:04;;;;;;;1.25;0.70;;;;;;;28.71;31.88;102433.78;5000386;28;20223;-73
2022/09/01 10:10:38;;;;;;;0.70;0.70;;;;;;;28.73;31.10;102432.00;5009353;28;20955;-73
2022/09/01 10:13:09;;;;;;;0.55;0.55;;;;;;;27.92;32.05;102436.94;5005148;28;20238;-73
2022/09/01 10:15:35;;;;;;;3.20;0.70;;;;;;;27.98;32.00;102427.09;5009964;28;20203;-73
2022/09/01 10:18:07;;;;;;;0.70;0.70;;;;;;;27.24;33.06;102429.88;5003278;28;20207;-72
2022/09/01 10:20:36;;;;;;;3.17;0.80;;;;;;;26.53;33.80;102433.19;5005603;28;20214;-72
2022/09/01 10:23:02;;;;;;;1.13;0.60;;;;;;;27.09;33.22;102430.19;5002943;28;20188;-74
2022/09/01 10:25:32;;;;;;;0.88;0.60;;;;;;;27.73;32.01;102425.13;5007027;28;20187;-72
2022/09/01 10:28:07;;;;;;;2.00;0.60;;;;;;;27.90;31.86;102420.31;5008174;28;20922;-73
2022/09/01 10:30:35;;;;;;;1.85;0.70;;;;;;;28.44;31.74;102421.41;5003299;28;20194;-73
2022/09/01 10:33:01;;;;;;;3.33;0.63;;;;;;;28.56;29.11;102413.16;5006759;28;20686;-73
2022/09/01 10:35:33;;;;;;;1.13;0.75;;;;;;;28.42;28.19;102416.19;5009042;28;20202;-73
2022/09/01 10:38:05;;;;;;;1.27;0.70;;;;;;;28.42;28.96;102416.19;5008415;28;20677;-74
2022/09/01 10:40:39;;;;;;;0.82;0.75;;;;;;;28.13;30.03;102416.13;5005232;28;20183;-73
2022/09/01 10:43:26;;;;;;;0.75;0.70;;;;;;;28.74;29.25;102408.19;5005030;28;20194;-73
2022/09/01 10:45:52;;;;;;;1.85;0.52;;;;;;;28.76;28.83;102403.75;5002919;28;20338;-73
2022/09/01 10:48:20;;;;;;;2.25;0.70;;;;;;;28.77;29.43;102413.38;5006603;28;20290;-73
2022/09/01 10:51:14;;;;;;;2.38;0.70;;;;;;;28.94;29.06;102412.84;5002094;28;20290;-73
2022/09/01 10:53:41;;;;;;;0.75;0.68;;;;;;;29.13;29.02;102408.75;5007597;28;20538;-73
2022/09/01 10:56:49;;;;;;;0.98;0.60;;;;;;;29.43;28.20;102402.47;5007495;28;20245;-73
2022/09/01 10:59:24;;;;;;;0.60;0.60;;;;;;;29.78;27.50;102408.31;5004212;28;20187;-73
2022/09/01 11:01:49;;;;;;;0.85;0.73;;;;;;;29.62;27.40;102412.38;4998919;28;20666;-73
2022/09/01 11:04:40;;;;;;;0.90;0.65;;;;;;;29.52;28.88;102407.44;5004972;28;20253;-73
2022/09/01 11:07:18;;;;;;;0.88;0.77;;;;;;;28.69;28.79;102402.19;4983826;28;20230;-73
2022/09/01 11:10:04;;;;;;;2.38;0.90;;;;;;;29.12;28.10;102401.75;5006915;28;20629;-73
2022/09/01 11:12:56;;;;;;;0.77;0.70;;;;;;;29.14;28.31;102394.63;5003482;28;20202;-73
2022/09/01 11:15:34;;;;;;;0.95;0.70;;;;;;;29.54;28.45;102388.00;4998850;28;20218;-73
2022/09/01 11:18:01;;;;;;;0.75;0.70;;;;;;;30.22;27.85;102382.94;5006660;28;20226;-73
2022/09/01 11:20:35;;;;;;;1.02;0.65;;;;;;;30.11;26.70;102382.41;5008360;28;20591;-73
2022/09/01 11:23:20;;;;;;;1.35;0.70;;;;;;;30.47;27.07;102388.16;5007752;28;20187;-73
2022/09/01 11:25:50;;;;;;;1.25;0.80;;;;;;;30.83;26.78;102384.09;5018949;28;20205;-73
2022/09/01 11:28:22;;;;;;;0.73;0.50;;;;;;;29.85;27.33;102387.81;5005343;28;20277;-74
2022/09/01 11:30:54;;;;;;;0.98;0.82;;;;;;;30.13;26.89;102391.22;5004730;28;20187;-73
2022/09/01 11:33:47;;;;;;;1.75;0.88;;;;;;;29.84;27.75;102378.16;5002547;28;20608;-73
2022/09/01 11:36:44;;;;;;;1.13;0.80;;;;;;;29.73;28.85;102375.00;5010120;28;20616;-74
2022/09/01 11:39:13;;;;;;;2.88;0.82;;;;;;;29.03;29.30;102397.63;5006119;28;20193;-74
2022/09/01 11:41:38;;;;;;;2.33;0.80;;;;;;;28.51;30.51;102394.81;5010294;28;20187;-74
2022/09/01 11:44:21;;;;;;;1.15;0.68;;;;;;;28.15;31.52;102395.00;5006948;28;20588;-72
2022/09/01 11:46:47;;;;;;;0.73;0.73;;;;;;;27.88;31.85;102388.75;5009704;28;20586;-73
2022/09/01 11:49:29;;;;;;;2.35;0.70;;;;;;;27.42;31.94;102390.81;5008999;28;20183;-73